createdAt,value
2022-08-18T00:01:36.685Z,3.50
2022-08-18T00:04:35.375Z,3.60
2022-08-18T00:06:52.311Z,3.70
2022-08-18T00:09:18.775Z,3.72
2022-08-18T00:11:45.598Z,3.97
2022-08-18T00:14:22.730Z,3.60
2022-08-18T00:16:52.038Z,3.95
2022-08-18T00:19:18.506Z,4.00
2022-08-18T00:21:45.079Z,3.83
2022-08-18T00:24:11.613Z,3.70
2022-08-18T00:26:38.193Z,3.63
2022-08-18T00:29:04.872Z,3.78
2022-08-18T00:31:32.330Z,3.80
2022-08-18T00:34:00.329Z,4.03
2022-08-18T00:36:27.354Z,4.20
2022-08-18T00:38:53.929Z,4.30
2022-08-18T00:41:21.490Z,3.58
2022-08-18T00:43:50.392Z,3.97
2022-08-18T00:46:28.021Z,4.13
2022-08-18T00:48:54.662Z,3.60
2022-08-18T00:51:26.457Z,4.07
2022-08-18T00:54:09.117Z,3.78
2022-08-18T00:59:16.342Z,3.90
2022-08-18T01:01:44.624Z,4.28
2022-08-18T01:04:26.519Z,4.00
2022-08-18T01:07:00.694Z,3.95
2022-08-18T01:09:27.253Z,3.40
2022-08-18T01:11:54.112Z,3.85
2022-08-18T01:14:20.788Z,3.95
2022-08-18T01:17:07.823Z,3.92
2022-08-18T01:19:53.981Z,4.30
2022-08-18T01:22:35.877Z,3.67
2022-08-18T01:25:21.718Z,3.85
2022-08-18T01:27:52.796Z,3.75
2022-08-18T01:30:25.414Z,3.83
2022-08-18T01:35:23.346Z,3.92
2022-08-18T01:37:49.968Z,3.72
2022-08-18T01:41:17.610Z,3.83
2022-08-18T01:43:06.893Z,3.92
2022-08-18T01:45:33.528Z,4.18
2022-08-18T01:48:00.706Z,3.75
2022-08-18T01:50:27.596Z,4.20
2022-08-18T01:52:54.070Z,4.10
2022-08-18T01:55:21.087Z,3.92
2022-08-18T01:57:47.686Z,3.92
2022-08-18T02:00:17.980Z,3.80
2022-08-18T02:02:44.958Z,4.00
2022-08-18T02:05:16.807Z,3.90
2022-08-18T02:07:43.454Z,4.03
2022-08-18T02:10:12.203Z,3.90
2022-08-18T02:12:40.973Z,4.30
2022-08-18T02:15:08.985Z,3.90
2022-08-18T02:17:43.127Z,4.15
2022-08-18T02:20:13.251Z,4.03
2022-08-18T02:22:40.112Z,3.90
2022-08-18T02:25:07.283Z,4.20
2022-08-18T02:27:35.247Z,4.30
2022-08-18T02:30:04.752Z,4.20
2022-08-18T02:32:32.861Z,4.30
2022-08-18T02:34:59.473Z,4.03
2022-08-18T02:37:26.105Z,4.05
2022-08-18T02:39:52.640Z,3.97
2022-08-18T02:42:19.301Z,4.40
2022-08-18T02:44:45.803Z,3.80
2022-08-18T02:47:12.387Z,4.22
2022-08-18T02:49:38.924Z,4.00
2022-08-18T02:52:06.107Z,3.55
2022-08-18T02:54:32.964Z,3.85
2022-08-18T02:56:59.489Z,3.95
2022-08-18T02:59:27.744Z,4.35
2022-08-18T03:01:56.247Z,4.20
2022-08-18T03:04:29.408Z,3.95
2022-08-18T03:06:58.418Z,4.40
2022-08-18T03:09:25.585Z,4.22
2022-08-18T03:11:53.479Z,3.85
2022-08-18T03:14:20.814Z,3.75
2022-08-18T03:16:53.587Z,4.40
2022-08-18T03:19:31.886Z,4.07
2022-08-18T03:22:03.177Z,4.20
2022-08-18T03:24:32.455Z,3.90
2022-08-18T03:27:00.275Z,3.83
2022-08-18T03:29:32.107Z,4.13
2022-08-18T03:32:04.367Z,4.13
2022-08-18T03:34:31.617Z,3.97
2022-08-18T03:36:59.154Z,3.90
2022-08-18T03:39:27.801Z,3.80
2022-08-18T03:41:59.999Z,3.65
2022-08-18T03:44:30.740Z,3.80
2022-08-18T03:46:57.852Z,3.60
2022-08-18T03:49:24.402Z,3.90
2022-08-18T03:51:51.769Z,4.00
2022-08-18T03:54:18.852Z,4.10
2022-08-18T03:56:46.588Z,4.07
2022-08-18T03:59:19.142Z,4.43
2022-08-18T04:01:47.319Z,3.90
2022-08-18T04:04:21.242Z,4.00
2022-08-18T04:06:51.593Z,3.67
2022-08-18T04:09:19.584Z,3.85
2022-08-18T04:11:46.565Z,3.78
2022-08-18T04:14:16.716Z,4.18
2022-08-18T04:16:43.718Z,4.20
2022-08-18T04:19:13.587Z,3.80
2022-08-18T04:21:42.334Z,4.20
2022-08-18T04:24:11.181Z,4.25
2022-08-18T04:26:40.739Z,3.70
2022-08-18T04:29:09.072Z,4.07
2022-08-18T04:31:36.449Z,4.10
2022-08-18T04:34:03.701Z,3.78
2022-08-18T04:36:34.176Z,3.70
2022-08-18T04:39:01.633Z,3.90
2022-08-18T04:41:29.461Z,3.88
2022-08-18T04:44:01.488Z,3.97
2022-08-18T04:46:29.508Z,3.83
2022-08-18T04:49:01.261Z,3.92
2022-08-18T04:52:37.547Z,3.90
2022-08-18T04:54:16.356Z,4.13
2022-08-18T04:56:43.652Z,4.18
2022-08-18T04:59:14.701Z,4.22
2022-08-18T05:01:45.652Z,3.97
2022-08-18T05:04:13.630Z,4.05
2022-08-18T05:06:41.269Z,4.40
2022-08-18T05:09:10.270Z,7.00
2022-08-18T05:11:37.817Z,7.72
2022-08-18T05:14:07.161Z,8.65
2022-08-18T05:16:36.575Z,8.82
2022-08-18T05:19:21.940Z,7.22
2022-08-18T05:21:51.515Z,8.40
2022-08-18T05:24:20.251Z,8.65
2022-08-18T05:26:47.562Z,9.70
2022-08-18T05:29:18.640Z,9.65
2022-08-18T05:31:46.863Z,9.43
2022-08-18T05:34:13.382Z,9.07
2022-08-18T05:36:48.605Z,9.90
2022-08-18T05:39:15.820Z,9.48
2022-08-18T05:41:46.955Z,9.95
2022-08-18T05:44:17.555Z,9.70
2022-08-18T05:46:55.677Z,9.32
2022-08-18T05:49:26.335Z,9.60
2022-08-18T05:51:59.480Z,10.43
2022-08-18T05:54:56.639Z,10.07
2022-08-18T05:57:27.987Z,10.07
2022-08-18T05:59:55.075Z,11.20
2022-08-18T06:02:48.248Z,10.45
2022-08-18T06:05:26.862Z,10.18
2022-08-18T06:08:08.473Z,13.27
2022-08-18T06:10:37.311Z,33.80
2022-08-18T06:13:07.895Z,15.13
2022-08-18T06:15:48.685Z,11.43
2022-08-18T06:18:18.680Z,10.65
2022-08-18T06:21:06.777Z,10.75
2022-08-18T06:23:51.834Z,10.60
2022-08-18T06:26:27.383Z,10.07
2022-08-18T06:29:32.169Z,9.88
2022-08-18T06:32:20.093Z,10.23
2022-08-18T06:35:20.772Z,10.27
2022-08-18T06:38:27.840Z,9.73
2022-08-18T06:41:10.181Z,10.93
2022-08-18T06:44:03.279Z,10.10
2022-08-18T06:46:48.575Z,9.57
2022-08-18T06:49:26.560Z,10.43
2022-08-18T06:51:53.242Z,11.68
2022-08-18T06:54:19.648Z,11.45
2022-08-18T06:56:51.702Z,11.30
2022-08-18T06:59:20.145Z,11.43
2022-08-18T07:01:50.955Z,10.55
2022-08-18T07:04:41.346Z,10.80
2022-08-18T07:07:17.446Z,11.10
2022-08-18T07:09:44.262Z,11.57
2022-08-18T07:12:18.423Z,11.68
2022-08-18T07:14:54.102Z,11.02
2022-08-18T07:17:43.744Z,10.38
2022-08-18T07:20:24.988Z,11.43
2022-08-18T07:22:59.815Z,13.50
2022-08-18T07:25:42.542Z,17.02
2022-08-18T07:29:02.550Z,47.53
2022-08-18T07:31:39.654Z,25.30
2022-08-18T07:34:25.656Z,16.23
2022-08-18T07:37:02.696Z,24.63
2022-08-18T07:39:38.760Z,15.65
2022-08-18T07:43:00.881Z,25.30
2022-08-18T07:45:37.725Z,28.35
2022-08-18T07:48:36.943Z,31.98
2022-08-18T07:51:20.764Z,32.50
2022-08-18T07:54:25.362Z,22.48
2022-08-18T07:57:23.168Z,20.75
2022-08-18T08:00:17.339Z,22.95
2022-08-18T08:03:06.856Z,20.65
2022-08-18T08:05:42.347Z,12.63
2022-08-18T08:08:14.598Z,12.02
2022-08-18T08:11:18.696Z,21.45
2022-08-18T08:14:01.333Z,19.77
2022-08-18T08:19:42.529Z,15.35
2022-08-18T08:22:59.865Z,16.10
2022-08-18T08:25:47.751Z,14.20
2022-08-18T08:28:17.675Z,12.73
2022-08-18T08:31:25.604Z,16.60
2022-08-18T08:33:55.920Z,19.75
2022-08-18T08:36:33.362Z,26.90
2022-08-18T08:39:39.201Z,18.27
2022-08-18T08:42:30.464Z,18.73
2022-08-18T08:47:48.048Z,17.95
2022-08-18T08:50:20.448Z,16.83
2022-08-18T08:53:02.482Z,15.00
2022-08-18T08:55:34.254Z,13.20
2022-08-18T08:58:29.184Z,11.90
2022-08-18T09:00:56.439Z,11.07
2022-08-18T09:03:39.484Z,11.40
2022-08-18T09:06:14.097Z,10.80
2022-08-18T09:09:09.194Z,10.10
2022-08-18T09:11:56.958Z,10.60
2022-08-18T09:14:54.094Z,10.15
2022-08-18T09:17:50.980Z,10.60
2022-08-18T09:20:47.194Z,11.90
2022-08-18T09:23:26.371Z,13.43
2022-08-18T09:25:56.569Z,14.35
2022-08-18T09:28:56.428Z,13.20
2022-08-18T09:31:25.433Z,13.25
2022-08-18T09:34:10.794Z,13.13
2022-08-18T09:36:59.841Z,13.07
2022-08-18T09:39:55.217Z,12.20
2022-08-18T09:42:50.398Z,11.32
2022-08-18T09:45:34.278Z,11.60
2022-08-18T09:48:32.002Z,12.50
2022-08-18T09:51:20.888Z,12.18
2022-08-18T09:53:52.284Z,13.57
2022-08-18T09:56:54.249Z,12.80
2022-08-18T09:59:34.905Z,22.80
2022-08-18T10:02:14.160Z,105.40
2022-08-18T10:04:51.528Z,100.13
2022-08-18T10:07:43.308Z,93.63
2022-08-18T10:10:59.036Z,114.13
2022-08-18T10:13:16.191Z,99.10
2022-08-18T10:16:10.974Z,107.13
2022-08-18T10:18:50.092Z,104.07
2022-08-18T10:21:27.687Z,107.05
2022-08-18T10:24:29.841Z,108.35
2022-08-18T10:26:54.777Z,89.40
2022-08-18T10:29:24.792Z,40.03
2022-08-18T10:31:58.515Z,28.38
2022-08-18T10:34:40.111Z,21.77
2022-08-18T10:37:47.220Z,20.33
2022-08-18T10:40:21.556Z,17.85
2022-08-18T10:45:22.181Z,16.65
2022-08-18T10:48:16.628Z,16.33
2022-08-18T10:50:55.695Z,15.50
2022-08-18T10:53:51.669Z,14.57
2022-08-18T10:56:41.955Z,14.18
2022-08-18T10:59:44.005Z,14.77
2022-08-18T11:02:50.819Z,13.63
2022-08-18T11:05:21.999Z,12.73
2022-08-18T11:07:52.223Z,13.63
2022-08-18T11:10:57.864Z,13.25
2022-08-18T11:13:44.591Z,12.75
2022-08-18T11:16:25.047Z,13.40
2022-08-18T11:18:58.543Z,13.40
2022-08-18T11:21:43.401Z,13.90
2022-08-18T11:24:28.576Z,13.75
2022-08-18T11:26:58.871Z,13.63
2022-08-18T11:29:35.850Z,17.50
2022-08-18T11:32:27.049Z,18.10
2022-08-18T11:34:56.671Z,23.10
2022-08-18T11:41:02.326Z,24.77
2022-08-18T11:43:10.508Z,34.47
2022-08-18T11:45:44.266Z,27.20
2022-08-18T11:48:35.947Z,35.45
2022-08-18T11:51:17.469Z,33.60
2022-08-18T11:53:55.610Z,27.33
2022-08-18T11:56:38.006Z,26.27
2022-08-18T11:59:52.459Z,25.35
2022-08-18T12:02:23.786Z,30.17
2022-08-18T12:04:53.867Z,27.15
2022-08-18T12:07:35.730Z,23.60
2022-08-18T12:10:26.065Z,23.02
2022-08-18T12:12:55.741Z,23.50
2022-08-18T12:15:47.403Z,21.42
2022-08-18T12:18:28.107Z,99.57
2022-08-18T12:20:57.521Z,30.40
2022-08-18T12:23:24.182Z,22.70
2022-08-18T12:25:51.828Z,23.92
2022-08-18T12:28:19.838Z,46.90
2022-08-18T12:30:49.138Z,26.02
2022-08-18T12:33:25.524Z,30.70
2022-08-18T12:35:52.666Z,59.83
2022-08-18T12:38:19.207Z,44.60
2022-08-18T12:40:45.906Z,29.80
2022-08-18T12:43:12.456Z,26.17
2022-08-18T12:45:39.676Z,18.38
2022-08-18T12:48:08.517Z,38.95
2022-08-18T12:50:49.753Z,24.58
2022-08-18T12:56:19.687Z,14.18
2022-08-18T12:58:46.571Z,23.58
2022-08-18T13:01:13.466Z,22.20
2022-08-18T13:03:45.341Z,20.30
2022-08-18T13:06:19.865Z,14.77
2022-08-18T13:08:49.872Z,13.32
2022-08-18T13:11:21.650Z,12.65
2022-08-18T13:13:52.989Z,14.57
2022-08-18T13:16:30.553Z,13.55
2022-08-18T13:19:07.162Z,12.70
2022-08-18T13:21:40.931Z,12.98
2022-08-18T13:24:09.421Z,12.70
2022-08-18T13:26:42.377Z,11.73
2022-08-18T13:29:12.741Z,12.30
2022-08-18T13:31:41.020Z,11.98
2022-08-18T13:34:19.089Z,11.13
2022-08-18T13:36:46.128Z,11.65
2022-08-18T13:39:16.519Z,9.98
2022-08-18T13:41:45.668Z,11.20
2022-08-18T13:44:18.721Z,10.40
2022-08-18T13:46:48.163Z,10.52
2022-08-18T13:49:18.376Z,10.02
2022-08-18T13:51:59.090Z,9.88
2022-08-18T13:54:35.251Z,9.70
2022-08-18T13:57:03.257Z,9.00
2022-08-18T13:59:33.112Z,9.65
2022-08-18T14:02:05.886Z,8.70
2022-08-18T14:04:36.189Z,9.38
2022-08-18T14:07:07.222Z,8.80
2022-08-18T14:09:41.787Z,8.32
2022-08-18T14:12:25.984Z,8.32
2022-08-18T14:14:55.692Z,9.15
2022-08-18T14:17:26.620Z,8.20
2022-08-18T14:20:22.316Z,8.77
2022-08-18T14:23:21.680Z,8.02
2022-08-18T14:26:09.298Z,8.32
2022-08-18T14:28:35.983Z,8.77
2022-08-18T14:31:07.072Z,8.48
2022-08-18T14:33:51.088Z,7.85
2022-08-18T14:36:19.888Z,8.60
2022-08-18T14:38:47.017Z,8.32
2022-08-18T14:41:18.922Z,8.07
2022-08-18T14:44:04.580Z,8.20
2022-08-18T14:46:33.204Z,8.10
2022-08-18T14:49:03.902Z,8.45
2022-08-18T14:51:34.859Z,8.38
2022-08-18T14:54:02.055Z,7.60
2022-08-18T14:56:29.491Z,7.60
2022-08-18T14:58:56.477Z,8.13
2022-08-18T15:01:24.660Z,7.82
2022-08-18T15:03:54.510Z,7.85
2022-08-18T15:06:23.014Z,7.35
2022-08-18T15:11:24.468Z,7.70
2022-08-18T15:13:51.596Z,7.80
2022-08-18T15:16:26.946Z,7.90
2022-08-18T15:18:58.551Z,7.57
2022-08-18T15:21:43.732Z,7.45
2022-08-18T15:24:28.653Z,7.47
2022-08-18T15:27:03.154Z,7.50
2022-08-18T15:29:33.324Z,7.80
2022-08-18T15:32:02.215Z,7.40
2022-08-18T15:34:32.908Z,7.60
2022-08-18T15:37:14.083Z,7.50
2022-08-18T15:39:44.268Z,7.45
2022-08-18T15:42:13.662Z,7.80
2022-08-18T15:44:44.797Z,7.53
2022-08-18T15:47:11.462Z,6.75
2022-08-18T15:49:38.530Z,7.13
2022-08-18T15:52:05.187Z,7.00
2022-08-18T15:54:39.153Z,6.72
2022-08-18T15:57:38.452Z,7.10
2022-08-18T16:00:01.061Z,6.70
2022-08-18T16:02:27.668Z,7.13
2022-08-18T16:04:54.411Z,7.03
2022-08-18T16:07:39.919Z,7.20
2022-08-18T16:10:08.556Z,6.63
2022-08-18T16:12:36.209Z,6.97
2022-08-18T16:15:09.758Z,6.88
2022-08-18T16:17:36.358Z,6.55
2022-08-18T16:20:02.912Z,6.75
2022-08-18T16:22:29.457Z,6.47
2022-08-18T16:24:56.157Z,6.55
2022-08-18T16:27:22.692Z,6.68
2022-08-18T16:29:49.814Z,6.72
2022-08-18T16:32:16.745Z,6.45
2022-08-18T16:34:43.464Z,6.25
2022-08-18T16:37:10.446Z,6.35
2022-08-18T16:39:37.041Z,6.47
2022-08-18T16:42:04.223Z,6.07
2022-08-18T16:44:32.797Z,6.70
2022-08-18T16:47:01.583Z,6.53
2022-08-18T16:49:29.033Z,6.72
2022-08-18T16:51:55.544Z,5.97
2022-08-18T16:54:22.669Z,6.30
2022-08-18T16:56:49.176Z,6.57
2022-08-18T16:59:33.973Z,6.40
2022-08-18T17:02:18.895Z,6.20
2022-08-18T17:04:45.412Z,6.28
2022-08-18T17:07:11.924Z,6.10
2022-08-18T17:09:38.759Z,5.60
2022-08-18T17:12:06.092Z,6.10
2022-08-18T17:14:33.652Z,6.32
2022-08-18T17:17:00.646Z,6.15
2022-08-18T17:19:33.611Z,6.57
2022-08-18T17:22:05.300Z,5.75
2022-08-18T17:24:32.685Z,6.68
2022-08-18T17:27:26.922Z,6.30
2022-08-18T17:30:07.073Z,6.57
2022-08-18T17:32:49.682Z,5.88
2022-08-18T17:38:07.043Z,6.40
2022-08-18T17:40:44.687Z,6.22
2022-08-18T17:43:15.291Z,5.93
2022-08-18T17:45:43.345Z,5.90
2022-08-18T17:48:14.894Z,5.88
2022-08-18T17:51:08.438Z,6.27
2022-08-18T17:53:36.314Z,6.07
2022-08-18T17:56:21.170Z,6.15
2022-08-18T17:58:56.560Z,6.05
2022-08-18T18:01:25.859Z,6.20
2022-08-18T18:03:53.243Z,5.75
2022-08-18T18:06:35.024Z,5.95
2022-08-18T18:09:07.824Z,5.90
2022-08-18T18:11:39.140Z,5.65
2022-08-18T18:14:38.817Z,6.07
2022-08-18T18:17:14.474Z,5.88
2022-08-18T18:20:09.346Z,5.43
2022-08-18T18:22:43.855Z,5.57
2022-08-18T18:25:12.933Z,5.63
2022-08-18T18:27:47.430Z,6.30
2022-08-18T18:30:29.814Z,5.80
2022-08-18T18:33:02.712Z,5.45
2022-08-18T18:35:54.848Z,5.82
2022-08-18T18:38:33.209Z,5.80
2022-08-18T18:41:04.073Z,5.90
2022-08-18T18:43:43.577Z,5.50
2022-08-18T18:46:18.374Z,6.32
2022-08-18T18:49:03.134Z,5.93
2022-08-18T18:52:02.285Z,5.50
2022-08-18T18:54:53.430Z,5.57
2022-08-18T18:57:35.084Z,5.40
2022-08-18T19:00:19.879Z,5.73
2022-08-18T19:03:08.073Z,6.07
2022-08-18T19:05:40.249Z,5.78
2022-08-18T19:08:24.179Z,6.07
2022-08-18T19:10:59.029Z,5.82
2022-08-18T19:13:37.559Z,5.93
2022-08-18T19:16:24.237Z,6.32
2022-08-18T19:19:35.120Z,5.60
2022-08-18T19:24:43.050Z,5.75
2022-08-18T19:27:23.415Z,5.60
2022-08-18T19:29:54.194Z,5.55
2022-08-18T19:32:27.199Z,5.85
2022-08-18T19:34:55.689Z,5.70
2022-08-18T19:38:01.852Z,5.63
2022-08-18T19:40:48.133Z,5.85
2022-08-18T19:43:26.651Z,5.55
2022-08-18T19:46:23.194Z,5.50
2022-08-18T19:48:57.700Z,5.50
2022-08-18T19:51:34.163Z,5.43
2022-08-18T19:54:15.871Z,5.05
2022-08-18T19:56:57.284Z,6.03
2022-08-18T19:59:26.644Z,5.32
2022-08-18T20:02:25.409Z,5.25
2022-08-18T20:05:06.096Z,5.80
2022-08-18T20:07:55.718Z,5.20
2022-08-18T20:10:46.200Z,4.90
2022-08-18T20:13:35.324Z,5.38
2022-08-18T20:16:10.641Z,5.00
2022-08-18T20:18:49.046Z,5.03
2022-08-18T20:21:15.659Z,5.22
2022-08-18T20:24:00.582Z,5.50
2022-08-18T20:26:37.634Z,5.57
2022-08-18T20:29:05.045Z,5.28
2022-08-18T20:31:49.073Z,5.63
2022-08-18T20:34:18.243Z,5.22
2022-08-18T20:36:46.990Z,5.50
2022-08-18T20:39:32.349Z,5.80
2022-08-18T20:42:04.607Z,5.10
2022-08-18T20:44:49.799Z,5.25
2022-08-18T20:47:42.670Z,5.25
2022-08-18T20:50:33.566Z,5.13
2022-08-18T20:53:08.554Z,5.30
2022-08-18T20:55:58.205Z,4.60
2022-08-18T20:58:32.129Z,5.63
2022-08-18T21:03:45.533Z,4.78
2022-08-18T21:06:15.363Z,4.82
2022-08-18T21:08:53.354Z,4.50
2022-08-18T21:11:31.827Z,5.22
2022-08-18T21:14:03.738Z,4.88
2022-08-18T21:16:37.986Z,4.90
2022-08-18T21:19:25.263Z,5.07
2022-08-18T21:21:56.740Z,5.00
2022-08-18T21:24:34.267Z,4.90
2022-08-18T21:27:10.315Z,4.85
2022-08-18T21:29:49.176Z,5.40
2022-08-18T21:32:31.359Z,4.95
2022-08-18T21:35:03.327Z,4.45
2022-08-18T21:37:32.778Z,4.53
2022-08-18T21:40:05.148Z,4.80
2022-08-18T21:42:44.207Z,4.80
2022-08-18T21:45:16.710Z,4.90
2022-08-18T21:47:52.525Z,4.80
2022-08-18T21:50:23.716Z,4.57
2022-08-18T21:52:53.650Z,4.43
2022-08-18T21:55:45.383Z,4.40
2022-08-18T21:58:17.795Z,4.80
2022-08-18T22:03:23.913Z,4.40
2022-08-18T22:06:13.863Z,4.65
2022-08-18T22:08:51.403Z,4.78
2022-08-18T22:11:59.956Z,4.47
2022-08-18T22:14:54.721Z,4.40
2022-08-18T22:17:26.799Z,4.60
2022-08-18T22:19:53.767Z,4.40
2022-08-18T22:22:41.466Z,4.55
2022-08-18T22:25:12.108Z,5.03
2022-08-18T22:27:40.115Z,4.50
2022-08-18T22:30:07.102Z,4.80
2022-08-18T22:32:37.606Z,4.70
2022-08-18T22:35:06.449Z,4.13
2022-08-18T22:37:48.704Z,4.38
2022-08-18T22:40:17.405Z,4.05
2022-08-18T22:42:48.494Z,4.45
2022-08-18T22:45:15.056Z,4.00
2022-08-18T22:47:43.307Z,4.22
2022-08-18T22:50:12.423Z,4.18
2022-08-18T22:52:46.426Z,4.40
2022-08-18T22:55:22.104Z,4.20
2022-08-18T22:57:51.400Z,4.50
2022-08-18T23:00:23.012Z,4.05
2022-08-18T23:02:50.510Z,4.28
2022-08-18T23:05:17.096Z,4.68
2022-08-18T23:07:43.609Z,4.10
2022-08-18T23:10:13.781Z,4.60
2022-08-18T23:12:42.641Z,4.30
2022-08-18T23:15:12.144Z,4.60
2022-08-18T23:17:40.692Z,4.20
2022-08-18T23:20:11.922Z,4.20
2022-08-18T23:22:40.138Z,4.00
2022-08-18T23:25:09.164Z,3.88
2022-08-18T23:27:36.566Z,3.95
2022-08-18T23:30:04.849Z,4.00
2022-08-18T23:32:32.098Z,4.28
2022-08-18T23:34:59.093Z,3.92
2022-08-18T23:37:25.550Z,4.30
2022-08-18T23:39:52.123Z,4.13
2022-08-18T23:42:18.660Z,4.07
2022-08-18T23:44:49.545Z,4.07
2022-08-18T23:47:16.559Z,4.40
2022-08-18T23:49:43.058Z,3.60
2022-08-18T23:52:10.161Z,4.07
2022-08-18T23:54:36.713Z,4.40
2022-08-18T23:57:03.261Z,4.00
2022-08-18T23:59:29.980Z,4.15
